sensor_id;sensor_type;location;lat;lon;timestamp;P1;durP1;ratioP1;P2;durP2;ratioP2
15557;SDS011;7880;50.110;9.372;2023-02-01T00:03:15;11.584615384615388;;;6.200000000000002;;
15557;SDS011;7880;50.110;9.372;2023-02-01T00:08:19;9.93846153846154;;;5.9;;
15557;SDS011;7880;50.110;9.372;2023-02-01T00:13:23;8.76923076923077;;;5.799999999999998;;
15557;SDS011;7880;50.110;9.372;2023-02-01T00:18:31;11.346153846153843;;;5.299999999999999;;
15557;SDS011;7880;50.110;9.372;2023-02-01T00:23:31;10.56153846153846;;;6.4;;
15557;SDS011;7880;50.110;9.372;2023-02-01T00:28:33;8.423076923076922;;;6.4;;
15557;SDS011;7880;50.110;9.372;2023-02-01T00:33:46;9.738461538461541;;;5.715384615384617;;
15557;SDS011;7880;50.110;9.372;2023-02-01T00:38:41;10.761538461538457;;;5.476923076923075;;
15557;SDS011;7880;50.110;9.372;2023-02-01T00:43:45;9.66153846153846;;;6.076923076923078;;
15557;SDS011;7880;50.110;9.372;2023-02-01T00:48:49;9.492307692307692;;;6.415384615384614;;
15557;SDS011;7880;50.110;9.372;2023-02-01T00:53:55;10.676923076923076;;;7.507692307692308;;
15557;SDS011;7880;50.110;9.372;2023-02-01T00:58:59;11.099999999999996;;;7.238461538461538;;
15557;SDS011;7880;50.110;9.372;2023-02-01T01:04:04;11.976923076923075;;;7.83846153846154;;
15557;SDS011;7880;50.110;9.372;2023-02-01T01:09:14;10.838461538461539;;;7.938461538461538;;
15557;SDS011;7880;50.110;9.372;2023-02-01T01:14:14;13.246153846153849;;;8.969230769230771;;
15557;SDS011;7880;50.110;9.372;2023-02-01T01:19:19;10.030769230769229;;;7.4769230769230735;;
15557;SDS011;7880;50.110;9.372;2023-02-01T01:24:23;8.561538461538461;;;7.330769230769231;;
15557;SDS011;7880;50.110;9.372;2023-02-01T01:29:27;9.099999999999998;;;6.5;;
15557;SDS011;7880;50.110;9.372;2023-02-01T01:34:37;7.476923076923075;;;5.9692307692307685;;
15557;SDS011;7880;50.110;9.372;2023-02-01T01:39:40;9.438461538461537;;;6.299999999999998;;
15557;SDS011;7880;50.110;9.372;2023-02-01T01:44:57;7.292307692307691;;;5.915384615384614;;
15557;SDS011;7880;50.110;9.372;2023-02-01T01:48:44;10.238461538461536;;;7.130769230769232;;
15557;SDS011;7880;50.110;9.372;2023-02-01T01:53:53;8.192307692307692;;;5.938461538461538;;
15557;SDS011;7880;50.110;9.372;2023-02-01T01:58:55;8.761538461538462;;;6.5;;
15557;SDS011;7880;50.110;9.372;2023-02-01T02:04:01;9.923076923076923;;;6.938461538461538;;
15557;SDS011;7880;50.110;9.372;2023-02-01T02:09:10;10.200000000000001;;;7.138461538461541;;
15557;SDS011;7880;50.110;9.372;2023-02-01T02:14:13;12.246153846153844;;;7.553846153846152;;
15557;SDS011;7880;50.110;9.372;2023-02-01T02:19:22;12.530769230769229;;;7.161538461538461;;
15557;SDS011;7880;50.110;9.372;2023-02-01T02:24:43;15.569230769230767;;;8.33846153846154;;
15557;SDS011;7880;50.110;9.372;2023-02-01T02:29:50;13.684615384615388;;;9.0;;
15557;SDS011;7880;50.110;9.372;2023-02-01T02:34:50;12.0;;;9.5;;
15557;SDS011;7880;50.110;9.372;2023-02-01T02:39:50;17.146153846153847;;;9.36923076923077;;
15557;SDS011;7880;50.110;9.372;2023-02-01T03:05:22;13.138461538461534;;;8.13846153846154;;
15557;SDS011;7880;50.110;9.372;2023-02-01T03:10:32;11.538461538461537;;;8.27692307692308;;
15557;SDS011;7880;50.110;9.372;2023-02-01T03:15:34;11.961538461538463;;;8.238461538461538;;
15557;SDS011;7880;50.110;9.372;2023-02-01T03:20:35;13.646153846153847;;;8.261538461538462;;
15557;SDS011;7880;50.110;9.372;2023-02-01T03:25:39;12.430769230769235;;;8.176923076923076;;
15557;SDS011;7880;50.110;9.372;2023-02-01T03:30:43;10.36923076923077;;;8.33846153846154;;
15557;SDS011;7880;50.110;9.372;2023-02-01T03:35:52;12.538461538461538;;;8.569230769230769;;
15557;SDS011;7880;50.110;9.372;2023-02-01T03:40:51;12.907692307692304;;;7.099999999999999;;
15557;SDS011;7880;50.110;9.372;2023-02-01T03:45:54;10.023076923076925;;;6.9615384615384635;;
15557;SDS011;7880;50.110;9.372;2023-02-01T03:51:07;12.04615384615385;;;7.061538461538462;;
15557;SDS011;7880;50.110;9.372;2023-02-01T03:56:02;9.807692307692308;;;6.038461538461537;;
15557;SDS011;7880;50.110;9.372;2023-02-01T04:01:15;9.36153846153846;;;6.238461538461538;;
15557;SDS011;7880;50.110;9.372;2023-02-01T04:06:13;10.307692307692308;;;6.5230769230769265;;
15557;SDS011;7880;50.110;9.372;2023-02-01T04:11:19;10.66923076923077;;;6.299999999999998;;
15557;SDS011;7880;50.110;9.372;2023-02-01T04:16:21;14.67692307692308;;;5.799999999999998;;
15557;SDS011;7880;50.110;9.372;2023-02-01T04:21:26;10.86923076923077;;;5.176923076923076;;
15557;SDS011;7880;50.110;9.372;2023-02-01T04:26:30;11.023076923076921;;;4.715384615384616;;
15557;SDS011;7880;50.110;9.372;2023-02-01T04:31:35;8.738461538461534;;;4.853846153846153;;
15557;SDS011;7880;50.110;9.372;2023-02-01T04:36:43;10.315384615384618;;;4.676923076923076;;
15557;SDS011;7880;50.110;9.372;2023-02-01T04:41:42;8.22307692307692;;;3.8615384615384603;;
15557;SDS011;7880;50.110;9.372;2023-02-01T04:46:46;6.338461538461538;;;3.399999999999999;;
15557;SDS011;7880;50.110;9.372;2023-02-01T04:51:50;6.9769230769230735;;;3.8769230769230774;;
15557;SDS011;7880;50.110;9.372;2023-02-01T04:56:57;8.72307692307692;;;3.338461538461538;;
15557;SDS011;7880;50.110;9.372;2023-02-01T05:02:01;8.038461538461537;;;3.4384615384615382;;
15557;SDS011;7880;50.110;9.372;2023-02-01T05:07:02;6.4615384615384635;;;3.576923076923078;;
15557;SDS011;7880;50.110;9.372;2023-02-01T05:19:00;7.307692307692307;;;4.0;;
15557;SDS011;7880;50.110;9.372;2023-02-01T05:24:13;9.36153846153846;;;5.238461538461538;;
15557;SDS011;7880;50.110;9.372;2023-02-01T05:29:09;9.45384615384615;;;4.338461538461538;;
15557;SDS011;7880;50.110;9.372;2023-02-01T05:34:11;10.599999999999998;;;4.86153846153846;;
15557;SDS011;7880;50.110;9.372;2023-02-01T05:39:15;11.076923076923082;;;5.369230769230768;;
15557;SDS011;7880;50.110;9.372;2023-02-01T05:44:19;11.5;;;5.1000000000000005;;
15557;SDS011;7880;50.110;9.372;2023-02-01T05:49:26;14.869230769230766;;;5.130769230769232;;
15557;SDS011;7880;50.110;9.372;2023-02-01T05:54:28;10.123076923076924;;;5.5;;
15557;SDS011;7880;50.110;9.372;2023-02-01T05:59:41;6.615384615384614;;;5.038461538461538;;
15557;SDS011;7880;50.110;9.372;2023-02-01T06:04:38;9.338461538461539;;;5.053846153846152;;
15557;SDS011;7880;50.110;9.372;2023-02-01T06:09:42;13.261538461538464;;;6.384615384615383;;
15557;SDS011;7880;50.110;9.372;2023-02-01T06:14:55;18.13076923076923;;;5.761538461538462;;
15557;SDS011;7880;50.110;9.372;2023-02-01T06:19:50;12.47692307692308;;;5.838461538461539;;
15557;SDS011;7880;50.110;9.372;2023-02-01T06:24:54;10.807692307692308;;;5.423076923076922;;
15557;SDS011;7880;50.110;9.372;2023-02-01T06:29:57;9.83076923076923;;;4.6692307692307695;;
15557;SDS011;7880;50.110;9.372;2023-02-01T06:35:01;11.961538461538463;;;5.338461538461539;;
15557;SDS011;7880;50.110;9.372;2023-02-01T06:40:05;19.253846153846148;;;5.161538461538461;;
15557;SDS011;7880;50.110;9.372;2023-02-01T06:45:10;7.715384615384618;;;4.076923076923078;;
15557;SDS011;7880;50.110;9.372;2023-02-01T06:50:14;11.161538461538457;;;4.538461538461539;;
15557;SDS011;7880;50.110;9.372;2023-02-01T06:55:27;13.046153846153844;;;4.6000000000000005;;
15557;SDS011;7880;50.110;9.372;2023-02-01T06:58:58;11.753846153846151;;;4.8999999999999995;;
15557;SDS011;7880;50.110;9.372;2023-02-01T07:04:00;11.846153846153848;;;3.2;;
15557;SDS011;7880;50.110;9.372;2023-02-01T07:09:06;11.930769230769231;;;4.238461538461538;;
15557;SDS011;7880;50.110;9.372;2023-02-01T07:14:08;11.746153846153849;;;4.3999999999999995;;
15557;SDS011;7880;50.110;9.372;2023-02-01T07:19:13;8.46923076923077;;;3.600000000000001;;
15557;SDS011;7880;50.110;9.372;2023-02-01T07:24:16;14.20769230769231;;;3.8769230769230774;;
15557;SDS011;7880;50.110;9.372;2023-02-01T07:29:20;9.207692307692309;;;4.6000000000000005;;
15557;SDS011;7880;50.110;9.372;2023-02-01T07:34:25;9.36153846153846;;;3.399999999999999;;
15557;SDS011;7880;50.110;9.372;2023-02-01T07:39:32;13.623076923076924;;;3.7000000000000006;;
15557;SDS011;7880;50.110;9.372;2023-02-01T07:44:41;12.823076923076924;;;4.338461538461538;;
15557;SDS011;7880;50.110;9.372;2023-02-01T07:49:42;7.723076923076925;;;3.9923076923076914;;
15557;SDS011;7880;50.110;9.372;2023-02-01T07:54:46;11.04615384615385;;;3.838461538461538;;
15557;SDS011;7880;50.110;9.372;2023-02-01T08:06:40;16.584615384615386;;;4.299999999999999;;
15557;SDS011;7880;50.110;9.372;2023-02-01T08:11:46;11.407692307692304;;;2.838461538461538;;
15557;SDS011;7880;50.110;9.372;2023-02-01T08:16:56;14.62307692307693;;;3.038461538461539;;
15557;SDS011;7880;50.110;9.372;2023-02-01T08:21:59;9.784615384615384;;;4.0;;
15557;SDS011;7880;50.110;9.372;2023-02-01T08:27:00;10.030769230769229;;;2.899999999999999;;
15557;SDS011;7880;50.110;9.372;2023-02-01T08:32:04;12.146153846153847;;;3.2;;
15557;SDS011;7880;50.110;9.372;2023-02-01T08:37:20;9.86923076923077;;;2.4692307692307693;;
15557;SDS011;7880;50.110;9.372;2023-02-01T08:43:18;15.961538461538463;;;3.2999999999999994;;
15557;SDS011;7880;50.110;9.372;2023-02-01T08:48:05;12.307692307692308;;;3.2;;
15557;SDS011;7880;50.110;9.372;2023-02-01T08:53:04;13.76153846153846;;;2.538461538461539;;
15557;SDS011;7880;50.110;9.372;2023-02-01T08:58:10;10.476923076923075;;;3.038461538461539;;
15557;SDS011;7880;50.110;9.372;2023-02-01T09:03:15;7.084615384615388;;;4.200000000000001;;
15557;SDS011;7880;50.110;9.372;2023-02-01T09:08:20;19.77692307692308;;;3.100000000000001;;
15557;SDS011;7880;50.110;9.372;2023-02-01T09:13:22;7.861538461538459;;;2.3999999999999995;;
15557;SDS011;7880;50.110;9.372;2023-02-01T09:18:32;6.1230769230769235;;;2.5;;
15557;SDS011;7880;50.110;9.372;2023-02-01T09:23:38;9.069230769230769;;;3.5615384615384618;;
15557;SDS011;7880;50.110;9.372;2023-02-01T09:28:46;18.576923076923077;;;3.0615384615384618;;
15557;SDS011;7880;50.110;9.372;2023-02-01T09:33:47;9.607692307692309;;;3.5;;
15557;SDS011;7880;50.110;9.372;2023-02-01T09:38:53;9.746153846153847;;;3.899999999999999;;
15557;SDS011;7880;50.110;9.372;2023-02-01T09:44:08;6.861538461538459;;;2.2384615384615385;;
15557;SDS011;7880;50.110;9.372;2023-02-01T09:49:04;16.261538461538457;;;3.0538461538461537;;
15557;SDS011;7880;50.110;9.372;2023-02-01T09:54:11;14.592307692307692;;;3.2615384615384633;;
15557;SDS011;7880;50.110;9.372;2023-02-01T09:59:20;12.030769230769227;;;2.7;;
15557;SDS011;7880;50.110;9.372;2023-02-01T10:04:16;13.992307692307694;;;3.600000000000001;;
15557;SDS011;7880;50.110;9.372;2023-02-01T10:09:22;12.184615384615386;;;2.9461538461538455;;
15557;SDS011;7880;50.110;9.372;2023-02-01T10:14:41;13.269230769230772;;;2.838461538461538;;
15557;SDS011;7880;50.110;9.372;2023-02-01T10:19:36;10.5;;;2.5;;
15557;SDS011;7880;50.110;9.372;2023-02-01T10:24:49;13.746153846153845;;;2.5;;
15557;SDS011;7880;50.110;9.372;2023-02-01T10:29:42;15.030769230769227;;;3.161538461538462;;
15557;SDS011;7880;50.110;9.372;2023-02-01T10:34:46;5.707692307692307;;;2.269230769230769;;
15557;SDS011;7880;50.110;9.372;2023-02-01T10:39:48;9.653846153846153;;;2.538461538461539;;
15557;SDS011;7880;50.110;9.372;2023-02-01T10:44:54;11.784615384615389;;;2.8;;
15557;SDS011;7880;50.110;9.372;2023-02-01T10:50:03;9.200000000000001;;;2.4384615384615382;;
15557;SDS011;7880;50.110;9.372;2023-02-01T10:55:20;5.984615384615385;;;1.961538461538461;;
15557;SDS011;7880;50.110;9.372;2023-02-01T11:00:18;12.46923076923077;;;3.399999999999999;;
15557;SDS011;7880;50.110;9.372;2023-02-01T11:05:10;10.638461538461538;;;3.461538461538461;;
15557;SDS011;7880;50.110;9.372;2023-02-01T11:10:13;9.023076923076925;;;2.5;;
15557;SDS011;7880;50.110;9.372;2023-02-01T11:15:18;15.61538461538462;;;3.0;;
15557;SDS011;7880;50.110;9.372;2023-02-01T11:20:19;8.200000000000001;;;2.6000000000000005;;
15557;SDS011;7880;50.110;9.372;2023-02-01T11:25:23;8.623076923076924;;;2.0615384615384618;;
15557;SDS011;7880;50.110;9.372;2023-02-01T11:30:29;9.607692307692304;;;2.6000000000000005;;
15557;SDS011;7880;50.110;9.372;2023-02-01T11:35:33;11.03076923076923;;;2.8;;
15557;SDS011;7880;50.110;9.372;2023-02-01T11:40:38;8.107692307692306;;;1.8999999999999997;;
15557;SDS011;7880;50.110;9.372;2023-02-01T11:45:39;11.730769230769234;;;3.161538461538462;;
15557;SDS011;7880;50.110;9.372;2023-02-01T11:50:44;9.3;;;1.9384615384615387;;
15557;SDS011;7880;50.110;9.372;2023-02-01T11:55:51;8.36153846153846;;;2.1999999999999997;;
15557;SDS011;7880;50.110;9.372;2023-02-01T12:00:55;7.8461538461538485;;;2.1461538461538456;;
15557;SDS011;7880;50.110;9.372;2023-02-01T12:05:15;6.207692307692307;;;2.269230769230769;;
15557;SDS011;7880;50.110;9.372;2023-02-01T12:10:18;12.930769230769235;;;3.0769230769230775;;
15557;SDS011;7880;50.110;9.372;2023-02-01T12:15:27;9.715384615384615;;;3.1384615384615393;;
15557;SDS011;7880;50.110;9.372;2023-02-01T12:20:48;13.430769230769233;;;2.330769230769231;;
15557;SDS011;7880;50.110;9.372;2023-02-01T12:25:42;10.084615384615384;;;3.061538461538462;;
15557;SDS011;7880;50.110;9.372;2023-02-01T12:30:47;9.007692307692306;;;2.3999999999999995;;
15557;SDS011;7880;50.110;9.372;2023-02-01T12:35:52;10.423076923076923;;;3.838461538461538;;
15557;SDS011;7880;50.110;9.372;2023-02-01T12:40:56;30.069230769230767;;;10.93846153846154;;
15557;SDS011;7880;50.110;9.372;2023-02-01T12:45:58;16.184615384615388;;;4.261538461538462;;
15557;SDS011;7880;50.110;9.372;2023-02-01T12:51:06;12.730769230769235;;;2.9230769230769225;;
15557;SDS011;7880;50.110;9.372;2023-02-01T12:56:08;8.515384615384617;;;2.3615384615384616;;
15557;SDS011;7880;50.110;9.372;2023-02-01T13:01:17;7.315384615384616;;;2.4384615384615382;;
15557;SDS011;7880;50.110;9.372;2023-02-01T13:06:15;8.023076923076925;;;2.6000000000000005;;
15557;SDS011;7880;50.110;9.372;2023-02-01T13:11:19;10.546153846153848;;;2.1999999999999997;;
15557;SDS011;7880;50.110;9.372;2023-02-01T13:16:25;17.315384615384612;;;2.7615384615384624;;
15557;SDS011;7880;50.110;9.372;2023-02-01T13:21:25;9.069230769230769;;;3.030769230769231;;
15557;SDS011;7880;50.110;9.372;2023-02-01T13:26:28;10.276923076923081;;;2.2769230769230764;;
15557;SDS011;7880;50.110;9.372;2023-02-01T13:31:42;11.484615384615385;;;2.3000000000000003;;
15557;SDS011;7880;50.110;9.372;2023-02-01T13:36:45;13.923076923076927;;;2.7;;
15557;SDS011;7880;50.110;9.372;2023-02-01T13:41:49;9.953846153846152;;;3.0307692307692307;;
15557;SDS011;7880;50.110;9.372;2023-02-01T13:46:56;7.63846153846154;;;2.1307692307692307;;
15557;SDS011;7880;50.110;9.372;2023-02-01T13:51:56;8.900000000000002;;;3.6076923076923086;;
15557;SDS011;7880;50.110;9.372;2023-02-01T13:56:59;12.669230769230772;;;2.6538461538461533;;
15557;SDS011;7880;50.110;9.372;2023-02-01T14:03:11;11.723076923076919;;;2.5;;
15557;SDS011;7880;50.110;9.372;2023-02-01T14:08:02;12.32307692307692;;;2.899999999999999;;
15557;SDS011;7880;50.110;9.372;2023-02-01T14:13:03;7.176923076923078;;;2.569230769230769;;
15557;SDS011;7880;50.110;9.372;2023-02-01T14:18:06;10.946153846153845;;;1.8000000000000005;;
15557;SDS011;7880;50.110;9.372;2023-02-01T14:23:38;9.407692307692306;;;1.7615384615384615;;
15557;SDS011;7880;50.110;9.372;2023-02-01T14:28:41;5.5;;;2.1000000000000005;;
15557;SDS011;7880;50.110;9.372;2023-02-01T14:33:49;4.584615384615384;;;1.861538461538462;;
15557;SDS011;7880;50.110;9.372;2023-02-01T14:38:50;6.784615384615382;;;2.2615384615384615;;
15557;SDS011;7880;50.110;9.372;2023-02-01T14:44:13;6.5384615384615365;;;2.176923076923077;;
15557;SDS011;7880;50.110;9.372;2023-02-01T14:49:01;11.43846153846154;;;2.3000000000000003;;
15557;SDS011;7880;50.110;9.372;2023-02-01T14:54:04;9.069230769230769;;;1.6999999999999995;;
15557;SDS011;7880;50.110;9.372;2023-02-01T14:59:12;14.423076923076918;;;2.030769230769231;;
15557;SDS011;7880;50.110;9.372;2023-02-01T15:04:15;13.215384615384611;;;2.3000000000000003;;
15557;SDS011;7880;50.110;9.372;2023-02-01T15:09:15;6.730769230769228;;;2.176923076923077;;
15557;SDS011;7880;50.110;9.372;2023-02-01T15:14:18;10.53076923076923;;;1.6;;
15557;SDS011;7880;50.110;9.372;2023-02-01T15:19:22;6.599999999999999;;;2.230769230769231;;
15557;SDS011;7880;50.110;9.372;2023-02-01T15:24:26;11.084615384615386;;;3.2692307692307705;;
15557;SDS011;7880;50.110;9.372;2023-02-01T15:29:32;10.94615384615385;;;2.5076923076923086;;
15557;SDS011;7880;50.110;9.372;2023-02-01T15:34:46;13.084615384615383;;;4.869230769230769;;
15557;SDS011;7880;50.110;9.372;2023-02-01T15:40:01;9.5;;;5.0;;
15557;SDS011;7880;50.110;9.372;2023-02-01T15:44:46;16.89230769230769;;;2.8;;
15557;SDS011;7880;50.110;9.372;2023-02-01T15:49:50;7.299999999999998;;;4.361538461538462;;
15557;SDS011;7880;50.110;9.372;2023-02-01T15:54:53;12.400000000000004;;;5.038461538461538;;
15557;SDS011;7880;50.110;9.372;2023-02-01T15:59:58;16.084615384615383;;;2.530769230769231;;
15557;SDS011;7880;50.110;9.372;2023-02-01T16:05:25;6.646153846153845;;;2.3846153846153837;;
15557;SDS011;7880;50.110;9.372;2023-02-01T16:10:20;12.523076923076928;;;4.2615384615384615;;
15557;SDS011;7880;50.110;9.372;2023-02-01T16:15:16;11.069230769230767;;;3.4615384615384617;;
15557;SDS011;7880;50.110;9.372;2023-02-01T16:20:19;10.492307692307692;;;3.43076923076923;;
15557;SDS011;7880;50.110;9.372;2023-02-01T16:25:24;8.507692307692306;;;2.5;;
15557;SDS011;7880;50.110;9.372;2023-02-01T16:30:29;8.807692307692308;;;2.899999999999999;;
15557;SDS011;7880;50.110;9.372;2023-02-01T16:35:36;11.66923076923077;;;2.899999999999999;;
15557;SDS011;7880;50.110;9.372;2023-02-01T16:40:39;10.323076923076924;;;4.023076923076923;;
15557;SDS011;7880;50.110;9.372;2023-02-01T16:45:51;9.961538461538463;;;3.7000000000000006;;
15557;SDS011;7880;50.110;9.372;2023-02-01T16:50:49;13.438461538461542;;;6.700000000000002;;
15557;SDS011;7880;50.110;9.372;2023-02-01T16:55:52;12.584615384615386;;;3.100000000000001;;
15557;SDS011;7880;50.110;9.372;2023-02-01T17:01:00;16.846153846153847;;;3.7307692307692295;;
15557;SDS011;7880;50.110;9.372;2023-02-01T17:06:01;9.669230769230769;;;2.669230769230769;;
15557;SDS011;7880;50.110;9.372;2023-02-01T17:09:25;12.361538461538462;;;2.899999999999999;;
15557;SDS011;7880;50.110;9.372;2023-02-01T17:14:26;10.015384615384617;;;2.969230769230769;;
15557;SDS011;7880;50.110;9.372;2023-02-01T17:19:31;8.438461538461537;;;2.5;;
15557;SDS011;7880;50.110;9.372;2023-02-01T17:24:38;11.969230769230771;;;5.961538461538459;;
15557;SDS011;7880;50.110;9.372;2023-02-01T17:29:41;7.276923076923077;;;2.3000000000000003;;
15557;SDS011;7880;50.110;9.372;2023-02-01T17:34:46;11.753846153846151;;;2.8692307692307684;;
15557;SDS011;7880;50.110;9.372;2023-02-01T17:39:56;12.153846153846153;;;2.3000000000000003;;
15557;SDS011;7880;50.110;9.372;2023-02-01T17:44:55;7.961538461538459;;;1.8000000000000005;;
15557;SDS011;7880;50.110;9.372;2023-02-01T17:49:57;8.438461538461539;;;2.06923076923077;;
15557;SDS011;7880;50.110;9.372;2023-02-01T17:55:00;11.684615384615382;;;2.1000000000000005;;
15557;SDS011;7880;50.110;9.372;2023-02-01T18:00:14;10.56153846153846;;;2.93076923076923;;
15557;SDS011;7880;50.110;9.372;2023-02-01T18:05:12;12.115384615384615;;;2.4230769230769225;;
15557;SDS011;7880;50.110;9.372;2023-02-01T18:10:16;10.992307692307694;;;2.899999999999999;;
15557;SDS011;7880;50.110;9.372;2023-02-01T18:15:18;12.953846153846156;;;2.8692307692307684;;
15557;SDS011;7880;50.110;9.372;2023-02-01T18:20:21;10.100000000000001;;;2.969230769230769;;
15557;SDS011;7880;50.110;9.372;2023-02-01T18:25:25;9.799999999999999;;;2.261538461538461;;
15557;SDS011;7880;50.110;9.372;2023-02-01T18:30:30;7.276923076923078;;;2.1000000000000005;;
15557;SDS011;7880;50.110;9.372;2023-02-01T18:35:43;11.084615384615384;;;2.638461538461539;;
15557;SDS011;7880;50.110;9.372;2023-02-01T18:40:38;10.400000000000002;;;2.899999999999999;;
15557;SDS011;7880;50.110;9.372;2023-02-01T18:45:42;13.307692307692308;;;2.669230769230769;;
15557;SDS011;7880;50.110;9.372;2023-02-01T18:50:45;6.038461538461538;;;2.1307692307692307;;
15557;SDS011;7880;50.110;9.372;2023-02-01T18:55:49;7.676923076923078;;;2.3999999999999995;;
15557;SDS011;7880;50.110;9.372;2023-02-01T19:00:53;9.86923076923077;;;2.169230769230769;;
15557;SDS011;7880;50.110;9.372;2023-02-01T19:06:00;10.523076923076921;;;2.330769230769231;;
15557;SDS011;7880;50.110;9.372;2023-02-01T19:11:03;17.423076923076923;;;2.7;;
15557;SDS011;7880;50.110;9.372;2023-02-01T19:16:07;10.646153846153847;;;1.8999999999999997;;
15557;SDS011;7880;50.110;9.372;2023-02-01T19:21:13;10.569230769230773;;;2.3999999999999995;;
15557;SDS011;7880;50.110;9.372;2023-02-01T19:26:18;9.307692307692308;;;3.100000000000001;;
15557;SDS011;7880;50.110;9.372;2023-02-01T19:31:22;7.707692307692307;;;2.630769230769231;;
15557;SDS011;7880;50.110;9.372;2023-02-01T19:36:38;6.8461538461538485;;;2.7;;
15557;SDS011;7880;50.110;9.372;2023-02-01T19:41:32;12.530769230769227;;;3.0615384615384618;;
15557;SDS011;7880;50.110;9.372;2023-02-01T19:46:35;7.900000000000001;;;2.638461538461539;;
15557;SDS011;7880;50.110;9.372;2023-02-01T19:51:41;11.369230769230768;;;2.8615384615384607;;
15557;SDS011;7880;50.110;9.372;2023-02-01T19:56:44;8.52307692307692;;;2.1615384615384614;;
15557;SDS011;7880;50.110;9.372;2023-02-01T20:01:51;12.653846153846157;;;3.3615384615384603;;
15557;SDS011;7880;50.110;9.372;2023-02-01T20:06:54;15.084615384615388;;;3.576923076923078;;
15557;SDS011;7880;50.110;9.372;2023-02-01T20:12:03;11.253846153846153;;;2.2769230769230764;;
15557;SDS011;7880;50.110;9.372;2023-02-01T20:17:12;10.407692307692306;;;3.7000000000000006;;
15557;SDS011;7880;50.110;9.372;2023-02-01T20:22:07;18.661538461538463;;;3.738461538461539;;
15557;SDS011;7880;50.110;9.372;2023-02-01T20:27:13;10.838461538461539;;;3.7384615384615367;;
15557;SDS011;7880;50.110;9.372;2023-02-01T20:32:15;10.730769230769234;;;2.1999999999999997;;
15557;SDS011;7880;50.110;9.372;2023-02-01T20:37:19;13.023076923076925;;;2.9076923076923076;;
15557;SDS011;7880;50.110;9.372;2023-02-01T20:42:28;10.246153846153847;;;2.6000000000000005;;
15557;SDS011;7880;50.110;9.372;2023-02-01T20:47:27;10.453846153846154;;;2.992307692307693;;
15557;SDS011;7880;50.110;9.372;2023-02-01T20:52:32;13.230769230769235;;;2.6000000000000005;;
15557;SDS011;7880;50.110;9.372;2023-02-01T20:57:36;18.63076923076923;;;3.3615384615384603;;
15557;SDS011;7880;50.110;9.372;2023-02-01T21:02:42;13.346153846153847;;;2.3000000000000003;;
15557;SDS011;7880;50.110;9.372;2023-02-01T21:07:45;11.2;;;2.530769230769231;;
15557;SDS011;7880;50.110;9.372;2023-02-01T21:12:53;7.169230769230767;;;2.6538461538461537;;
15557;SDS011;7880;50.110;9.372;2023-02-01T21:17:56;7.384615384615386;;;2.7;;
15557;SDS011;7880;50.110;9.372;2023-02-01T21:22:59;10.8;;;2.4384615384615382;;
15557;SDS011;7880;50.110;9.372;2023-02-01T21:28:05;12.523076923076925;;;2.8;;
15557;SDS011;7880;50.110;9.372;2023-02-01T21:33:09;13.169230769230769;;;2.1999999999999997;;
15557;SDS011;7880;50.110;9.372;2023-02-01T21:38:12;7.838461538461539;;;2.1384615384615384;;
15557;SDS011;7880;50.110;9.372;2023-02-01T21:43:16;8.576923076923077;;;2.0;;
15557;SDS011;7880;50.110;9.372;2023-02-01T21:48:22;10.046153846153848;;;2.1999999999999997;;
15557;SDS011;7880;50.110;9.372;2023-02-01T21:53:26;14.392307692307696;;;2.661538461538462;;
15557;SDS011;7880;50.110;9.372;2023-02-01T21:58:30;11.52307692307692;;;2.576923076923077;;
15557;SDS011;7880;50.110;9.372;2023-02-01T22:03:35;11.346153846153843;;;2.7384615384615376;;
15557;SDS011;7880;50.110;9.372;2023-02-01T22:08:41;9.884615384615385;;;2.5384615384615383;;
15557;SDS011;7880;50.110;9.372;2023-02-01T22:13:38;12.407692307692308;;;3.399999999999999;;
15557;SDS011;7880;50.110;9.372;2023-02-01T22:18:43;6.23076923076923;;;2.638461538461539;;
15557;SDS011;7880;50.110;9.372;2023-02-01T22:23:49;9.546153846153846;;;2.169230769230769;;
15557;SDS011;7880;50.110;9.372;2023-02-01T22:28:50;11.5;;;2.1999999999999997;;
15557;SDS011;7880;50.110;9.372;2023-02-01T22:34:01;11.96923076923077;;;2.3000000000000003;;
15557;SDS011;7880;50.110;9.372;2023-02-01T22:39:00;11.36153846153846;;;2.1999999999999997;;
15557;SDS011;7880;50.110;9.372;2023-02-01T22:44:03;8.5;;;1.8307692307692305;;
15557;SDS011;7880;50.110;9.372;2023-02-01T22:49:07;7.092307692307691;;;2.0538461538461537;;
15557;SDS011;7880;50.110;9.372;2023-02-01T22:54:14;8.599999999999998;;;2.038461538461539;;
15557;SDS011;7880;50.110;9.372;2023-02-01T22:59:21;6.484615384615385;;;1.6999999999999995;;
15557;SDS011;7880;50.110;9.372;2023-02-01T23:04:21;6.246153846153845;;;1.7615384615384615;;